Time;durP1;ratioP1;P1;durP2;ratioP2;P2;SDS_P1;SDS_P2;PMS_P1;PMS_P2;Temp;Humidity;BMP_temperature;BMP_pressure;BME280_temperature;BME280_humidity;BME280_pressure;Samples;Min_cycle;Max_cycle;Signal;HPM_P1;HPM_P2
2022/07/21 00:00:15;;;;;;;;;;;;;;;15.66;58.33;95756.09;4989328;28;20469;-60
2022/07/21 00:02:40;;;;;;;;;;;;;;;15.52;58.55;95749.88;5027163;28;19988;-57
2022/07/21 00:05:06;;;;;;;;;;;;;;;15.93;57.54;95750.72;5018384;28;19985;-59
2022/07/21 00:07:31;;;;;;;;;;;;;;;15.83;58.13;95762.72;5006440;28;20474;-60
2022/07/21 00:09:56;;;;;;;;;;;;;;;16.02;57.76;95756.69;5020482;28;20032;-60
2022/07/21 00:12:21;;;;;;;;;;;;;;;16.18;57.22;95752.75;5023260;28;19996;-60
2022/07/21 00:14:47;;;;;;;;;;;;;;;16.24;56.49;95758.09;5025910;28;19971;-60
2022/07/21 00:17:12;;;;;;;;;;;;;;;16.32;56.44;95761.59;5016221;28;20087;-60
2022/07/21 00:19:37;;;;;;;;;;;;;;;16.42;56.75;95779.97;5014457;28;20032;-58
2022/07/21 00:22:02;;;;;;;;;;;;;;;15.93;58.52;95794.50;5025477;28;20055;-62
2022/07/21 00:24:27;;;;;;;;;;;;;;;15.65;59.42;95805.44;5026884;28;19999;-62
2022/07/21 00:26:53;;;;;;;;;;;;;;;16.08;58.14;95817.63;5030016;28;20222;-60
2022/07/21 00:29:18;;;;;;;;;;;;;;;16.21;57.33;95814.91;5019299;28;20385;-60
2022/07/21 00:31:43;;;;;;;;;;;;;;;16.22;55.45;95821.94;5023225;28;19994;-60
2022/07/21 00:34:08;;;;;;;;;;;;;;;15.72;55.58;95825.91;5031519;28;19969;-62
2022/07/21 00:36:34;;;;;;;;;;;;;;;14.01;63.19;95845.16;5022364;28;19989;-60
2022/07/21 00:38:59;;;;;;;;;;;;;;;13.84;63.99;95824.03;5023020;28;20244;-58
2022/07/21 00:41:24;;;;;;;;;;;;;;;13.88;63.70;95817.28;5022667;28;20040;-59
2022/07/21 00:43:49;;;;;;;;;;;;;;;14.09;63.12;95815.56;5020747;28;19997;-61
2022/07/21 00:46:15;;;;;;;;;;;;;;;14.48;61.38;95812.50;5024638;28;20072;-58
2022/07/21 00:48:40;;;;;;;;;;;;;;;13.85;61.85;95827.50;5022953;28;20059;-58
2022/07/21 00:51:05;;;;;;;;;;;;;;;13.82;62.81;95844.78;5023000;28;19973;-60
2022/07/21 00:53:30;;;;;;;;;;;;;;;13.56;64.02;95838.16;5026891;28;20005;-62
2022/07/21 00:55:56;;;;;;;;;;;;;;;13.76;63.94;95840.19;5005157;28;19992;-61
2022/07/21 00:58:22;;;;;;;;;;;;;;;13.06;66.78;95836.25;5026129;28;20075;-62
2022/07/21 01:00:47;;;;;;;;;;;;;;;12.80;68.50;95829.53;5028629;28;20353;-58
2022/07/21 01:03:12;;;;;;;;;;;;;;;13.06;66.72;95817.53;5022845;28;19969;-59
2022/07/21 01:05:37;;;;;;;;;;;;;;;13.19;66.42;95819.50;5021636;28;20001;-60
2022/07/21 01:08:03;;;;;;;;;;;;;;;13.07;66.19;95815.66;5022137;28;20066;-58
2022/07/21 01:10:28;;;;;;;;;;;;;;;13.29;65.60;95803.16;5010299;28;19977;-59
2022/07/21 01:12:53;;;;;;;;;;;;;;;13.59;64.67;95804.88;5022278;28;20024;-60
2022/07/21 01:15:19;;;;;;;;;;;;;;;13.74;64.43;95797.59;5021880;28;20020;-60
2022/07/21 01:17:44;;;;;;;;;;;;;;;13.19;65.31;95787.41;5022723;28;20429;-60
2022/07/21 01:20:11;;;;;;;;;;;;;;;12.99;66.31;95773.84;5021282;28;20115;-59
2022/07/21 01:22:37;;;;;;;;;;;;;;;12.54;67.68;95782.78;5017841;28;20020;-60
2022/07/21 01:25:03;;;;;;;;;;;;;;;12.47;68.06;95787.19;5012809;28;19998;-62
2022/07/21 01:27:28;;;;;;;;;;;;;;;12.71;67.13;95783.38;5018782;28;19977;-62
2022/07/21 01:29:54;;;;;;;;;;;;;;;13.02;65.90;95781.50;5014505;28;20008;-61
2022/07/21 01:32:19;;;;;;;;;;;;;;;12.86;65.73;95794.06;5001392;28;20651;-61
2022/07/21 01:34:44;;;;;;;;;;;;;;;13.68;63.03;95796.53;5016307;28;19966;-62
2022/07/21 01:37:09;;;;;;;;;;;;;;;14.31;61.03;95810.16;5017724;28;19993;-59
2022/07/21 01:42:19;;;;;;;;;;;;;;;14.46;59.47;95826.91;5016295;28;20334;-60
2022/07/21 01:44:44;;;;;;;;;;;;;;;14.11;59.81;95826.09;5014745;28;20000;-60
2022/07/21 01:47:09;;;;;;;;;;;;;;;13.70;61.03;95829.25;5017187;28;19989;-62
2022/07/21 01:49:34;;;;;;;;;;;;;;;13.82;61.07;95815.34;5018653;28;19997;-61
2022/07/21 01:52:00;;;;;;;;;;;;;;;13.72;61.42;95818.34;5018721;28;19993;-63
2022/07/21 01:54:25;;;;;;;;;;;;;;;13.86;61.02;95830.00;5009682;28;19970;-62
2022/07/21 01:56:50;;;;;;;;;;;;;;;14.43;59.36;95835.34;5014069;28;20059;-62
2022/07/21 01:59:15;;;;;;;;;;;;;;;14.57;59.27;95836.25;5013225;28;20253;-63
2022/07/21 02:01:41;;;;;;;;;;;;;;;14.74;58.05;95841.31;5016330;28;20233;-63
2022/07/21 02:04:06;;;;;;;;;;;;;;;13.77;61.25;95841.88;5017480;28;20004;-64
2022/07/21 02:06:31;;;;;;;;;;;;;;;13.87;61.29;95838.84;5018708;28;20036;-62
2022/07/21 02:08:56;;;;;;;;;;;;;;;13.55;62.60;95839.19;5014856;28;20004;-63
2022/07/21 02:11:22;;;;;;;;;;;;;;;13.02;64.98;95837.63;5018600;28;20036;-62
2022/07/21 02:13:47;;;;;;;;;;;;;;;13.41;63.45;95835.56;5014495;28;19972;-62
2022/07/21 02:16:12;;;;;;;;;;;;;;;13.23;64.19;95839.50;5017808;28;20048;-59
2022/07/21 02:18:37;;;;;;;;;;;;;;;13.02;64.33;95829.63;5013756;28;20059;-62
2022/07/21 02:21:03;;;;;;;;;;;;;;;12.84;64.93;95836.16;5017402;28;20013;-64
2022/07/21 02:23:28;;;;;;;;;;;;;;;12.56;65.65;95841.34;5020578;28;19997;-61
2022/07/21 02:25:54;;;;;;;;;;;;;;;12.62;65.36;95846.75;5020326;28;20090;-61
2022/07/21 02:28:19;;;;;;;;;;;;;;;11.94;67.66;95846.78;5025249;28;20418;-62
2022/07/21 02:30:45;;;;;;;;;;;;;;;12.07;67.02;95841.69;5020688;28;19985;-59
2022/07/21 02:33:10;;;;;;;;;;;;;;;12.14;66.70;95837.28;5026336;28;20033;-59
2022/07/21 02:35:35;;;;;;;;;;;;;;;12.34;66.25;95844.75;5020822;28;20350;-59
2022/07/21 02:38:00;;;;;;;;;;;;;;;12.05;67.35;95849.03;5023856;28;20027;-59
2022/07/21 02:40:26;;;;;;;;;;;;;;;12.52;65.57;95854.25;5021608;28;21630;-60
2022/07/21 02:42:51;;;;;;;;;;;;;;;12.71;64.71;95839.47;5020226;28;20039;-61
2022/07/21 02:45:16;;;;;;;;;;;;;;;13.02;64.08;95851.00;5016673;28;20002;-60
2022/07/21 02:47:49;;;;;;;;;;;;;;;12.70;64.94;95850.34;5018964;28;20224;-59
2022/07/21 02:50:14;;;;;;;;;;;;;;;13.01;63.75;95842.16;5027315;28;20075;-62
2022/07/21 02:52:40;;;;;;;;;;;;;;;12.95;63.45;95839.38;5000390;28;20372;-61
2022/07/21 02:55:05;;;;;;;;;;;;;;;13.09;63.07;95829.69;5026352;28;20449;-60
2022/07/21 02:57:30;;;;;;;;;;;;;;;13.67;61.40;95845.66;5019156;28;20523;-62
2022/07/21 02:59:55;;;;;;;;;;;;;;;13.91;60.62;95835.59;5020666;28;20028;-61
2022/07/21 03:02:21;;;;;;;;;;;;;;;13.92;60.45;95831.09;5021244;28;20084;-59
2022/07/21 03:04:46;;;;;;;;;;;;;;;13.95;60.33;95828.03;5020412;28;20336;-61
2022/07/21 03:07:11;;;;;;;;;;;;;;;14.23;59.31;95818.31;5023367;28;20036;-58
2022/07/21 03:09:36;;;;;;;;;;;;;;;14.40;59.14;95825.03;5020560;28;19973;-63
2022/07/21 03:12:02;;;;;;;;;;;;;;;14.59;58.50;95822.66;5025863;28;19998;-61
2022/07/21 03:14:27;;;;;;;;;;;;;;;14.65;58.13;95821.84;5021041;28;20185;-60
2022/07/21 03:16:52;;;;;;;;;;;;;;;14.89;57.69;95827.75;5034079;28;20227;-63
2022/07/21 03:19:17;;;;;;;;;;;;;;;15.17;56.57;95823.31;5029510;28;20132;-63
2022/07/21 03:21:43;;;;;;;;;;;;;;;14.77;57.50;95818.63;5020610;28;19992;-62
2022/07/21 03:24:08;;;;;;;;;;;;;;;14.34;58.69;95823.97;5021880;28;19989;-61
2022/07/21 03:26:38;;;;;;;;;;;;;;;13.95;59.91;95811.97;5025538;28;20044;-62
2022/07/21 03:29:03;;;;;;;;;;;;;;;13.93;60.35;95814.84;5027028;28;20418;-58
2022/07/21 03:31:28;;;;;;;;;;;;;;;13.74;60.68;95815.47;5032855;28;19979;-62
2022/07/21 03:33:54;;;;;;;;;;;;;;;14.32;59.52;95820.66;5021237;28;20502;-60
2022/07/21 03:36:19;;;;;;;;;;;;;;;14.33;59.29;95825.00;5026194;28;20503;-58
2022/07/21 03:38:44;;;;;;;;;;;;;;;14.57;58.27;95824.69;5026184;28;20409;-58
2022/07/21 03:41:09;;;;;;;;;;;;;;;14.52;57.99;95819.94;5024722;28;20072;-60
2022/07/21 03:43:35;;;;;;;;;;;;;;;14.76;57.13;95817.00;5019559;28;20218;-59
2022/07/21 03:46:00;;;;;;;;;;;;;;;14.71;57.51;95817.53;5030052;28;19996;-62
2022/07/21 03:48:25;;;;;;;;;;;;;;;15.24;56.38;95824.16;5031066;28;19990;-59
2022/07/21 03:50:50;;;;;;;;;;;;;;;15.45;55.61;95809.75;5020413;28;20016;-61
2022/07/21 03:53:16;;;;;;;;;;;;;;;15.22;55.69;95812.78;5024130;28;20640;-62
2022/07/21 03:55:41;;;;;;;;;;;;;;;15.13;55.40;95814.81;5027368;28;20444;-60
2022/07/21 03:58:06;;;;;;;;;;;;;;;15.75;54.27;95820.09;5020712;28;20403;-61
2022/07/21 04:00:36;;;;;;;;;;;;;;;16.00;53.73;95822.19;5006271;28;20097;-62
2022/07/21 04:03:01;;;;;;;;;;;;;;;16.12;52.79;95825.03;5019237;28;20187;-60
2022/07/21 04:05:26;;;;;;;;;;;;;;;16.10;52.66;95831.66;5021942;28;20001;-62
2022/07/21 04:07:52;;;;;;;;;;;;;;;15.60;54.19;95828.38;5023573;28;19996;-61
2022/07/21 04:10:18;;;;;;;;;;;;;;;15.80;53.44;95829.38;5024438;28;20289;-61
2022/07/21 04:12:43;;;;;;;;;;;;;;;15.73;53.50;95821.34;5006937;28;20190;-62
2022/07/21 04:15:09;;;;;;;;;;;;;;;15.77;53.85;95827.16;5024000;28;20456;-64
2022/07/21 04:17:34;;;;;;;;;;;;;;;15.78;53.87;95823.41;5022719;28;19965;-63
2022/07/21 04:20:00;;;;;;;;;;;;;;;15.86;53.59;95828.56;5023102;28;20004;-63
2022/07/21 04:22:25;;;;;;;;;;;;;;;16.05;53.10;95834.16;5024253;28;20033;-62
2022/07/21 04:24:50;;;;;;;;;;;;;;;16.02;53.04;95829.19;5008760;28;20060;-62
2022/07/21 04:27:15;;;;;;;;;;;;;;;16.19;52.29;95835.81;5027197;28;20460;-63
2022/07/21 04:29:41;;;;;;;;;;;;;;;16.21;52.34;95836.41;5025303;28;19975;-63
2022/07/21 04:32:06;;;;;;;;;;;;;;;16.33;52.11;95833.06;5023625;28;20472;-60
2022/07/21 04:34:31;;;;;;;;;;;;;;;16.37;51.68;95839.72;5024459;28;19991;-58
2022/07/21 04:36:56;;;;;;;;;;;;;;;16.46;51.55;95835.75;5023029;28;20023;-60
2022/07/21 04:39:22;;;;;;;;;;;;;;;16.65;51.49;95827.84;5022640;28;20028;-59
2022/07/21 04:41:47;;;;;;;;;;;;;;;16.80;51.14;95826.78;5034159;28;20352;-61
2022/07/21 04:44:12;;;;;;;;;;;;;;;16.57;51.42;95836.97;5028277;28;20570;-59
2022/07/21 04:46:37;;;;;;;;;;;;;;;16.18;52.25;95842.19;5024000;28;20079;-59
2022/07/21 04:49:03;;;;;;;;;;;;;;;16.69;51.26;95833.66;5023103;28;20032;-61
2022/07/21 04:51:28;;;;;;;;;;;;;;;17.16;49.19;95836.16;5023839;28;19974;-61
2022/07/21 04:53:53;;;;;;;;;;;;;;;17.09;49.32;95838.00;5022896;28;19969;-62
2022/07/21 04:56:18;;;;;;;;;;;;;;;17.34;48.75;95851.56;5021531;28;19990;-62
2022/07/21 04:58:43;;;;;;;;;;;;;;;17.28;48.88;95844.38;5021935;28;20035;-63
2022/07/21 05:01:09;;;;;;;;;;;;;;;17.46;48.46;95838.25;5023050;28;19992;-61
2022/07/21 05:03:34;;;;;;;;;;;;;;;16.93;50.08;95852.78;5024877;28;19991;-60
2022/07/21 05:05:59;;;;;;;;;;;;;;;16.82;50.21;95851.59;5028302;28;20019;-61
2022/07/21 05:08:26;;;;;;;;;;;;;;;16.90;50.73;95856.72;5034480;28;20294;-63
2022/07/21 05:10:51;;;;;;;;;;;;;;;16.97;50.21;95852.16;5029055;28;20092;-63
2022/07/21 05:13:17;;;;;;;;;;;;;;;16.60;51.50;95860.75;5022287;28;20505;-61
2022/07/21 05:15:42;;;;;;;;;;;;;;;17.16;50.16;95857.66;5022775;28;20352;-62
2022/07/21 05:18:07;;;;;;;;;;;;;;;17.72;48.19;95836.44;5021852;28;20022;-62
2022/07/21 05:20:32;;;;;;;;;;;;;;;17.48;48.95;95843.44;5031528;28;20328;-63
2022/07/21 05:22:58;;;;;;;;;;;;;;;17.40;49.52;95839.94;5027694;28;19997;-60
2022/07/21 05:25:23;;;;;;;;;;;;;;;17.53;48.65;95849.81;5023536;28;19999;-63
2022/07/21 05:27:48;;;;;;;;;;;;;;;17.77;48.07;95851.91;5021872;28;20026;-57
2022/07/21 05:30:13;;;;;;;;;;;;;;;17.95;46.79;95848.50;5026564;28;20063;-61
2022/07/21 05:32:39;;;;;;;;;;;;;;;17.09;49.32;95857.69;5021820;28;19992;-60
2022/07/21 05:35:10;;;;;;;;;;;;;;;17.82;47.98;95856.66;5038881;28;19977;-58
2022/07/21 05:37:35;;;;;;;;;;;;;;;18.04;47.93;95859.81;5020061;28;20035;-63
2022/07/21 05:40:01;;;;;;;;;;;;;;;17.89;47.87;95870.94;5030967;28;19988;-62
2022/07/21 05:42:26;;;;;;;;;;;;;;;17.37;49.27;95874.56;5022459;28;19973;-62
2022/07/21 05:44:51;;;;;;;;;;;;;;;16.63;51.21;95872.94;5024119;28;20086;-61
2022/07/21 05:47:16;;;;;;;;;;;;;;;16.62;50.82;95880.16;5030264;28;20052;-63
2022/07/21 05:49:42;;;;;;;;;;;;;;;16.71;50.49;95870.03;5024184;28;20486;-60
2022/07/21 05:52:07;;;;;;;;;;;;;;;17.10;50.01;95864.69;5035176;28;19993;-60
2022/07/21 05:54:32;;;;;;;;;;;;;;;17.11;49.75;95869.09;5024635;28;19973;-62
2022/07/21 05:56:58;;;;;;;;;;;;;;;16.52;51.75;95879.78;5029368;28;20187;-63
2022/07/21 05:59:23;;;;;;;;;;;;;;;16.70;51.49;95873.75;5025587;28;19976;-61
2022/07/21 06:01:48;;;;;;;;;;;;;;;17.31;49.61;95873.53;5021161;28;20023;-61
2022/07/21 06:04:13;;;;;;;;;;;;;;;17.26;49.84;95879.56;5023446;28;19989;-63
2022/07/21 06:06:39;;;;;;;;;;;;;;;16.39;51.09;95886.00;5030668;28;19999;-61
2022/07/21 06:09:04;;;;;;;;;;;;;;;17.40;49.56;95877.63;5023254;28;20670;-62
2022/07/21 06:11:29;;;;;;;;;;;;;;;16.62;51.66;95900.84;5030265;28;20032;-61
2022/07/21 06:13:55;;;;;;;;;;;;;;;17.23;49.84;95881.88;5021964;28;20201;-59
2022/07/21 06:16:20;;;;;;;;;;;;;;;17.07;50.07;95894.72;5021561;28;19999;-58
2022/07/21 06:18:45;;;;;;;;;;;;;;;17.05;50.61;95906.72;5024856;28;19973;-59
2022/07/21 06:21:10;;;;;;;;;;;;;;;16.99;50.50;95900.31;5025421;28;19991;-59
2022/07/21 06:23:36;;;;;;;;;;;;;;;16.75;51.37;95908.88;5031528;28;19995;-57
2022/07/21 06:26:01;;;;;;;;;;;;;;;16.21;52.72;95914.28;5023252;28;20049;-57
2022/07/21 06:28:26;;;;;;;;;;;;;;;16.71;51.48;95907.66;5024000;28;20011;-56
2022/07/21 06:30:52;;;;;;;;;;;;;;;17.07;50.60;95910.88;5030042;28;20503;-58
2022/07/21 06:33:17;;;;;;;;;;;;;;;16.54;51.65;95909.97;5025865;28;19984;-57
2022/07/21 06:35:42;;;;;;;;;;;;;;;17.34;50.67;95909.97;5027540;28;20123;-59
2022/07/21 06:38:07;;;;;;;;;;;;;;;16.85;50.72;95924.56;5023708;28;20156;-59
2022/07/21 06:40:33;;;;;;;;;;;;;;;16.84;50.63;95920.25;5025591;28;19998;-58
2022/07/21 06:42:58;;;;;;;;;;;;;;;16.78;51.43;95913.00;5020827;28;20074;-58
2022/07/21 06:45:23;;;;;;;;;;;;;;;17.75;48.54;95908.66;5018411;28;20015;-57
2022/07/21 06:47:49;;;;;;;;;;;;;;;17.46;49.27;95897.47;5018309;28;20003;-58
2022/07/21 06:50:14;;;;;;;;;;;;;;;18.16;47.93;95911.94;5018848;28;20133;-60
2022/07/21 06:52:39;;;;;;;;;;;;;;;18.48;46.50;95905.66;5022718;28;20015;-59
2022/07/21 06:55:05;;;;;;;;;;;;;;;17.90;48.49;95911.09;5023351;28;19969;-62
2022/07/21 06:57:30;;;;;;;;;;;;;;;18.42;47.67;95903.84;5018860;28;20305;-60
2022/07/21 06:59:55;;;;;;;;;;;;;;;18.29;47.45;95905.63;5029036;28;20340;-60
2022/07/21 07:02:21;;;;;;;;;;;;;;;18.44;48.05;95920.63;5025387;28;19964;-58
2022/07/21 07:04:46;;;;;;;;;;;;;;;18.28;46.60;95911.22;5018219;28;19994;-57
2022/07/21 07:07:11;;;;;;;;;;;;;;;17.91;47.10;95901.97;5016096;28;19987;-60
2022/07/21 07:09:36;;;;;;;;;;;;;;;18.05;47.78;95905.41;5015770;28;20048;-58
2022/07/21 07:12:08;;;;;;;;;;;;;;;17.74;48.77;95911.63;5019600;28;20625;-57
2022/07/21 07:14:33;;;;;;;;;;;;;;;18.09;47.48;95910.34;5023144;28;19988;-62
2022/07/21 07:16:59;;;;;;;;;;;;;;;18.22;46.70;95909.44;5020176;28;19991;-60
2022/07/21 07:19:24;;;;;;;;;;;;;;;18.34;46.62;95912.22;5021834;28;19968;-58
2022/07/21 07:21:49;;;;;;;;;;;;;;;18.56;46.26;95902.69;5015830;28;20064;-58
2022/07/21 07:24:14;;;;;;;;;;;;;;;18.70;45.53;95907.97;5002477;28;19988;-58
2022/07/21 07:26:40;;;;;;;;;;;;;;;18.02;46.67;95908.53;5011032;28;20477;-59
2022/07/21 07:29:05;;;;;;;;;;;;;;;18.05;46.65;95913.47;5004893;28;20109;-58
2022/07/21 07:31:30;;;;;;;;;;;;;;;17.77;46.55;95912.00;5008499;28;19967;-59
2022/07/21 07:33:58;;;;;;;;;;;;;;;18.50;44.37;95911.66;5012297;28;20329;-59
2022/07/21 07:36:26;;;;;;;;;;;;;;;18.37;44.77;95912.63;5008941;28;19993;-59
2022/07/21 07:38:52;;;;;;;;;;;;;;;18.41;44.06;95899.50;5013629;28;19971;-58
2022/07/21 07:41:18;;;;;;;;;;;;;;;18.55;45.10;95901.03;5009831;28;20341;-58
2022/07/21 07:43:43;;;;;;;;;;;;;;;19.27;43.69;95896.13;5010020;28;19992;-59
2022/07/21 07:46:10;;;;;;;;;;;;;;;19.76;42.03;95898.00;5014177;28;20595;-59
2022/07/21 07:48:36;;;;;;;;;;;;;;;19.89;43.00;95896.97;5008170;28;20498;-59
2022/07/21 07:51:01;;;;;;;;;;;;;;;20.23;40.34;95896.47;5009353;28;20053;-60
2022/07/21 07:53:27;;;;;;;;;;;;;;;19.55;42.83;95900.13;5004225;28;20081;-61
2022/07/21 07:55:52;;;;;;;;;;;;;;;19.93;41.49;95906.25;5007441;28;20029;-58
2022/07/21 07:58:17;;;;;;;;;;;;;;;19.65;42.48;95894.19;5013105;28;20246;-59
2022/07/21 08:00:42;;;;;;;;;;;;;;;20.64;40.64;95909.31;5011545;28;20239;-59
2022/07/21 08:03:07;;;;;;;;;;;;;;;19.81;41.64;95906.22;5010046;28;20080;-58
2022/07/21 08:05:33;;;;;;;;;;;;;;;19.15;42.84;95916.81;5006360;28;20094;-60
2022/07/21 08:07:58;;;;;;;;;;;;;;;18.09;45.99;95911.19;5017447;28;19996;-58
2022/07/21 08:10:24;;;;;;;;;;;;;;;19.61;43.45;95909.19;5010451;28;19974;-57
2022/07/21 08:12:49;;;;;;;;;;;;;;;20.14;42.01;95908.66;5007698;28;20522;-58
2022/07/21 08:15:15;;;;;;;;;;;;;;;20.27;40.94;95918.44;5000432;28;20675;-60
2022/07/21 08:17:40;;;;;;;;;;;;;;;19.44;43.72;95919.78;5008088;28;19968;-60
2022/07/21 08:20:06;;;;;;;;;;;;;;;18.92;44.35;95929.94;5006770;28;20026;-58
2022/07/21 08:22:31;;;;;;;;;;;;;;;18.52;46.26;95925.72;5012308;28;20093;-58
2022/07/21 08:24:56;;;;;;;;;;;;;;;18.96;44.72;95924.91;5010514;28;20379;-59
2022/07/21 08:27:22;;;;;;;;;;;;;;;19.31;44.91;95928.91;5001634;28;20008;-59
2022/07/21 08:29:47;;;;;;;;;;;;;;;18.94;45.68;95925.13;5000407;28;20028;-57
2022/07/21 08:32:12;;;;;;;;;;;;;;;19.59;44.17;95922.09;5001540;28;20026;-60
2022/07/21 08:34:37;;;;;;;;;;;;;;;19.88;42.78;95916.91;4996043;28;20440;-59
2022/07/21 08:37:03;;;;;;;;;;;;;;;18.60;45.18;95926.53;5006578;28;20094;-60
2022/07/21 08:39:28;;;;;;;;;;;;;;;19.20;44.65;95931.28;5007510;28;20077;-59
2022/07/21 08:41:53;;;;;;;;;;;;;;;18.65;46.19;95921.28;5007166;28;19974;-59
2022/07/21 08:44:22;;;;;;;;;;;;;;;18.72;44.84;95918.53;5001556;28;19983;-59
2022/07/21 08:46:49;;;;;;;;;;;;;;;18.90;45.46;95925.81;5003039;28;20052;-59
2022/07/21 08:49:14;;;;;;;;;;;;;;;19.26;43.89;95918.75;5007853;28;19989;-59
2022/07/21 08:51:39;;;;;;;;;;;;;;;19.63;43.28;95917.06;4996641;28;20049;-59
2022/07/21 08:54:05;;;;;;;;;;;;;;;20.13;42.28;95909.72;5010654;28;20032;-60
2022/07/21 08:56:30;;;;;;;;;;;;;;;20.04;42.46;95914.63;5010481;28;20610;-59
2022/07/21 08:58:55;;;;;;;;;;;;;;;19.82;42.87;95921.34;5009397;28;19999;-59
2022/07/21 09:01:23;;;;;;;;;;;;;;;18.87;44.20;95920.88;5013495;28;20083;-59
2022/07/21 09:03:49;;;;;;;;;;;;;;;19.54;43.09;95916.56;5016448;28;19979;-59
2022/07/21 09:06:15;;;;;;;;;;;;;;;19.96;42.83;95924.72;5015568;28;20032;-60
2022/07/21 09:08:41;;;;;;;;;;;;;;;19.25;44.24;95922.53;5015387;28;20476;-59
2022/07/21 09:11:27;;;;;;;;;;;;;;;19.46;43.08;95918.53;5010480;28;19975;-59
2022/07/21 09:14:08;;;;;;;;;;;;;;;19.90;42.13;95911.28;5009198;28;20012;-60
2022/07/21 09:16:36;;;;;;;;;;;;;;;19.41;43.16;95902.19;5013752;28;20418;-75
2022/07/21 09:19:01;;;;;;;;;;;;;;;20.73;41.91;95907.88;5009968;28;19962;-75
2022/07/21 09:21:27;;;;;;;;;;;;;;;20.12;41.88;95905.38;4993493;28;20515;-75
2022/07/21 09:23:52;;;;;;;;;;;;;;;20.49;41.42;95913.28;5020904;28;20448;-75
2022/07/21 09:26:17;;;;;;;;;;;;;;;21.13;40.54;95915.25;5010581;28;20023;-75
2022/07/21 09:28:42;;;;;;;;;;;;;;;21.31;38.64;95923.47;5025237;28;19984;-75
2022/07/21 09:31:09;;;;;;;;;;;;;;;21.15;38.92;95928.53;5023204;28;20064;-76
2022/07/21 09:33:44;;;;;;;;;;;;;;;17.71;45.02;95925.50;5005622;28;20026;-76
2022/07/21 09:36:10;;;;;;;;;;;;;;;20.26;40.90;95920.31;5006808;28;20457;-76
2022/07/21 09:38:36;;;;;;;;;;;;;;;20.28;41.11;95917.38;5005502;28;20501;-75
2022/07/21 09:41:05;;;;;;;;;;;;;;;20.57;39.94;95920.22;5012972;28;19994;-76
2022/07/21 09:43:54;;;;;;;;;;;;;;;20.71;39.76;95915.44;5019082;28;20430;-76
2022/07/21 09:46:23;;;;;;;;;;;;;;;20.31;40.69;95933.13;4995384;28;19982;-76
2022/07/21 09:48:49;;;;;;;;;;;;;;;20.51;40.52;95923.84;5014400;28;20118;-75
2022/07/21 09:51:22;;;;;;;;;;;;;;;19.22;42.29;95925.66;4994642;28;19998;-75
2022/07/21 09:53:51;;;;;;;;;;;;;;;18.78;44.01;95936.50;5014961;28;19983;-76
2022/07/21 09:56:17;;;;;;;;;;;;;;;19.23;43.24;95929.19;5021199;28;20284;-75
2022/07/21 09:58:43;;;;;;;;;;;;;;;19.27;42.93;95931.22;5023443;28;20438;-70
2022/07/21 10:01:08;;;;;;;;;;;;;;;18.98;43.24;95920.13;5028411;28;19983;-66
2022/07/21 10:03:34;;;;;;;;;;;;;;;19.43;42.02;95931.66;5030084;28;19975;-65
2022/07/21 10:05:59;;;;;;;;;;;;;;;19.80;41.58;95919.94;5006382;28;19982;-68
2022/07/21 10:08:24;;;;;;;;;;;;;;;20.28;41.53;95945.22;5028622;28;20513;-70
2022/07/21 10:10:50;;;;;;;;;;;;;;;20.48;40.32;95927.84;5020402;28;19969;-70
2022/07/21 10:13:15;;;;;;;;;;;;;;;20.63;39.41;95921.19;5021124;28;20047;-70
2022/07/21 10:15:40;;;;;;;;;;;;;;;21.72;38.23;95920.72;5021202;28;19983;-71
2022/07/21 10:18:05;;;;;;;;;;;;;;;21.05;39.54;95925.63;5021443;28;20415;-71
2022/07/21 10:20:32;;;;;;;;;;;;;;;21.51;38.84;95933.88;5021943;28;19983;-70
2022/07/21 10:23:01;;;;;;;;;;;;;;;21.11;38.89;95936.31;5012214;28;19995;-72
2022/07/21 10:25:26;;;;;;;;;;;;;;;20.59;40.33;95928.91;5012325;28;20027;-68
2022/07/21 10:28:10;;;;;;;;;;;;;;;21.72;38.81;95920.72;5018423;28;19977;-70
2022/07/21 10:30:42;;;;;;;;;;;;;;;22.13;38.50;95912.53;5031896;28;19967;-71
2022/07/21 10:33:07;;;;;;;;;;;;;;;21.53;38.80;95920.09;5022122;28;20092;-68
2022/07/21 10:35:32;;;;;;;;;;;;;;;20.73;38.93;95918.69;5003683;28;20011;-69
2022/07/21 10:38:01;;;;;;;;;;;;;;;18.40;43.29;95908.66;5024610;28;20406;-70
2022/07/21 10:40:26;;;;;;;;;;;;;;;20.48;40.35;95917.03;5023831;28;19987;-69
2022/07/21 10:43:00;;;;;;;;;;;;;;;20.42;40.39;95917.97;5026147;28;20643;-68
2022/07/21 10:45:31;;;;;;;;;;;;;;;20.06;39.31;95915.25;5022212;28;19979;-70
2022/07/21 10:47:57;;;;;;;;;;;;;;;18.98;42.85;95917.44;5019313;28;20520;-68
2022/07/21 10:50:31;;;;;;;;;;;;;;;19.18;42.02;95910.97;5024295;28;20036;-68
2022/07/21 10:52:57;;;;;;;;;;;;;;;19.82;40.81;95931.34;5025491;28;19985;-68
2022/07/21 10:55:28;;;;;;;;;;;;;;;20.80;39.48;95924.81;5024889;28;19970;-66
2022/07/21 10:58:13;;;;;;;;;;;;;;;19.63;41.23;95917.06;5021081;28;20393;-70
2022/07/21 11:00:38;;;;;;;;;;;;;;;19.40;40.97;95914.03;5017352;28;20043;-71
2022/07/21 11:03:12;;;;;;;;;;;;;;;19.50;41.75;95927.00;5018363;28;19972;-69
2022/07/21 11:05:37;;;;;;;;;;;;;;;19.36;41.99;95920.13;5022806;28;19985;-68
2022/07/21 11:08:16;;;;;;;;;;;;;;;19.85;41.34;95922.78;5007321;28;19989;-69
2022/07/21 11:10:47;;;;;;;;;;;;;;;19.84;40.19;95918.44;5022592;28;20008;-67
2022/07/21 11:13:13;;;;;;;;;;;;;;;19.71;40.25;95917.56;5027820;28;20088;-71
2022/07/21 11:15:48;;;;;;;;;;;;;;;19.81;40.48;95917.00;5012051;28;20058;-71
2022/07/21 11:18:20;;;;;;;;;;;;;;;20.25;39.90;95915.97;5003318;28;20028;-68
2022/07/21 11:21:04;;;;;;;;;;;;;;;20.58;38.82;95919.16;5020810;28;20085;-67
2022/07/21 11:23:46;;;;;;;;;;;;;;;19.97;39.00;95918.28;5023284;28;20041;-70
2022/07/21 11:26:11;;;;;;;;;;;;;;;20.20;39.42;95924.75;5021055;28;19986;-66
2022/07/21 11:28:37;;;;;;;;;;;;;;;20.01;39.63;95921.31;5023313;28;19989;-69
2022/07/21 11:31:16;;;;;;;;;;;;;;;20.10;39.06;95921.81;5025851;28;20461;-67
2022/07/21 11:33:42;;;;;;;;;;;;;;;19.42;40.19;95921.91;5028065;28;19995;-67
2022/07/21 11:36:07;;;;;;;;;;;;;;;19.19;40.77;95907.22;5028752;28;19983;-66
2022/07/21 11:38:33;;;;;;;;;;;;;;;19.25;40.32;95902.78;5020794;28;20527;-67
2022/07/21 11:41:17;;;;;;;;;;;;;;;19.52;39.33;95911.41;5023030;28;20560;-68
2022/07/21 11:43:42;;;;;;;;;;;;;;;19.07;39.63;95905.28;5018364;28;22246;-68
2022/07/21 11:46:08;;;;;;;;;;;;;;;18.64;40.99;95923.19;5020654;28;19995;-70
2022/07/21 11:48:33;;;;;;;;;;;;;;;17.75;42.54;95937.47;5020705;28;20136;-70
2022/07/21 11:51:02;;;;;;;;;;;;;;;17.97;43.11;95921.81;5020233;28;20403;-68
2022/07/21 11:53:27;;;;;;;;;;;;;;;18.20;42.63;95922.28;5020359;28;20418;-69
2022/07/21 11:55:53;;;;;;;;;;;;;;;18.23;42.46;95925.38;5019947;28;20074;-72
2022/07/21 11:58:19;;;;;;;;;;;;;;;19.00;41.59;95923.41;5011048;28;20725;-72
2022/07/21 12:00:46;;;;;;;;;;;;;;;18.90;41.90;95920.44;5030396;28;20040;-72
2022/07/21 12:03:12;;;;;;;;;;;;;;;19.78;39.85;95920.16;5023816;28;19990;-69
2022/07/21 12:05:39;;;;;;;;;;;;;;;20.47;39.62;95916.19;5023586;28;20653;-70
2022/07/21 12:08:04;;;;;;;;;;;;;;;21.17;36.38;95907.47;5004228;28;20080;-72
2022/07/21 12:10:29;;;;;;;;;;;;;;;21.07;36.05;95910.78;5020121;28;20036;-70
2022/07/21 12:12:58;;;;;;;;;;;;;;;20.40;38.28;95914.69;5020614;28;19994;-71
2022/07/21 12:15:28;;;;;;;;;;;;;;;21.00;36.49;95912.78;5020144;28;19956;-71
2022/07/21 12:17:54;;;;;;;;;;;;;;;20.39;36.93;95911.16;5030533;28;20278;-69
2022/07/21 12:20:32;;;;;;;;;;;;;;;20.87;36.46;95908.44;5019412;28;20008;-71
2022/07/21 12:22:58;;;;;;;;;;;;;;;21.12;36.04;95915.50;5021270;28;20079;-70
2022/07/21 12:25:50;;;;;;;;;;;;;;;21.55;35.01;95907.94;5026600;28;19982;-70
2022/07/21 12:28:15;;;;;;;;;;;;;;;21.29;35.91;95914.75;5004182;28;19994;-71
2022/07/21 12:30:49;;;;;;;;;;;;;;;21.85;35.44;95904.16;5023701;28;19963;-71
2022/07/21 12:33:15;;;;;;;;;;;;;;;21.63;35.22;95907.59;5021525;28;20019;-73
2022/07/21 12:36:01;;;;;;;;;;;;;;;21.13;36.24;95906.28;5008099;28;20048;-73
2022/07/21 12:38:39;;;;;;;;;;;;;;;21.36;36.48;95905.44;5023433;28;20470;-72
2022/07/21 12:41:04;;;;;;;;;;;;;;;21.10;35.82;95910.31;5005727;28;20273;-73
2022/07/21 12:43:30;;;;;;;;;;;;;;;21.08;36.14;95908.91;5022897;28;19967;-72
2022/07/21 12:45:56;;;;;;;;;;;;;;;20.42;36.87;95907.97;5034523;28;19976;-72